Widewater, Canada
Current Conditions -  °F | °C
As of 8:00 PM on Wednesday 22 Oct 2014 (Local Time) from CYZH Reporting Station
Broken Clouds Broken Clouds  
Wind Chill: 52°   Ceiling: 9500
Heat Index: 52°   Visibility: 9mi
Dew Point: 34°   Wind: 8mph
Humidity: 50%   Direction: 90°E
Pressure: 29.55"   Gusts: NA
Location:  55.35°N, 114.98°W
Report Text: CYZH 230200Z AUTO 09007KT 9SM BKN095 11/01 A2955 RMK SLP022 DENSITY ALT 2300FT
Loading
Personal Weather Stations






























Interactive Weather Map
Tropical Storm Tracking
New forecast layout! Learn more

10-Day Weather Forecast

Advertisements
Track Severe Weather on mobile